createdAt,value
2018-03-31T00:00:02.964Z,987.95
2018-03-31T00:01:02.937Z,987.92
2018-03-31T00:02:02.911Z,987.96
2018-03-31T00:03:02.885Z,987.95
2018-03-31T00:04:02.857Z,987.98
2018-03-31T00:05:02.834Z,987.99
2018-03-31T00:06:02.803Z,987.98
2018-03-31T00:07:02.777Z,987.99
2018-03-31T00:08:02.775Z,987.98
2018-03-31T00:09:02.722Z,988
2018-03-31T00:10:02.700Z,987.98
2018-03-31T00:11:02.668Z,988
2018-03-31T00:12:02.641Z,988.05
2018-03-31T00:13:02.612Z,988.06
2018-03-31T00:14:02.588Z,988.07
2018-03-31T00:15:02.560Z,988.05
2018-03-31T00:16:02.533Z,988.04
2018-03-31T00:17:02.505Z,988.04
2018-03-31T00:18:02.477Z,988.01
2018-03-31T00:19:02.450Z,988.01
2018-03-31T00:20:02.425Z,988.03
2018-03-31T00:21:02.396Z,988.02
2018-03-31T00:22:02.369Z,988
2018-03-31T00:23:02.342Z,988.07
2018-03-31T00:24:02.316Z,988.07
2018-03-31T00:25:02.290Z,988.08
2018-03-31T00:26:02.260Z,988.06
2018-03-31T00:27:02.231Z,988.09
2018-03-31T00:28:02.213Z,988.08
2018-03-31T00:29:02.178Z,988.09
2018-03-31T00:30:02.153Z,988.13
2018-03-31T00:31:02.124Z,988.14
2018-03-31T00:32:02.095Z,988.15
2018-03-31T00:33:02.069Z,988.14
2018-03-31T00:34:02.042Z,988.16
2018-03-31T00:35:02.013Z,988.18
2018-03-31T00:36:01.990Z,988.14
2018-03-31T00:37:01.957Z,988.09
2018-03-31T00:38:01.932Z,988.12
2018-03-31T00:39:01.904Z,988.14
2018-03-31T00:40:01.876Z,988.08
2018-03-31T00:41:01.849Z,988.1
2018-03-31T00:42:01.821Z,988.12
2018-03-31T00:43:01.793Z,988.11
2018-03-31T00:44:01.767Z,988.15
2018-03-31T00:45:01.738Z,988.14
2018-03-31T00:46:01.710Z,988.17
2018-03-31T00:47:01.684Z,988.15
2018-03-31T00:48:01.657Z,988.14
2018-03-31T00:49:01.629Z,988.12
2018-03-31T00:50:01.600Z,988.1
2018-03-31T00:51:01.574Z,988.08
2018-03-31T00:52:01.546Z,988.06
2018-03-31T00:53:01.519Z,988.07
2018-03-31T00:54:01.491Z,988.08
2018-03-31T00:55:01.463Z,988.08
2018-03-31T00:56:01.436Z,988.1
2018-03-31T00:57:01.406Z,988.09
2018-03-31T00:58:01.380Z,988.11
2018-03-31T00:59:01.353Z,988.11
2018-03-31T01:00:01.330Z,988.11
2018-03-31T01:01:01.296Z,988.06
2018-03-31T01:02:01.270Z,988.09
2018-03-31T01:03:01.241Z,988.09
2018-03-31T01:04:01.214Z,988.11
2018-03-31T01:05:01.189Z,988.11
2018-03-31T01:06:01.158Z,988.09
2018-03-31T01:07:01.132Z,988.12
2018-03-31T01:08:01.104Z,988.05
2018-03-31T01:09:01.081Z,988.06
2018-03-31T01:10:01.048Z,987.99
2018-03-31T01:11:01.021Z,987.98
2018-03-31T01:12:00.992Z,987.96
2018-03-31T01:13:00.965Z,987.95
2018-03-31T01:14:00.937Z,987.93
2018-03-31T01:15:00.911Z,987.95
2018-03-31T01:16:00.881Z,987.93
2018-03-31T01:17:00.855Z,987.92
2018-03-31T01:18:00.827Z,987.9
2018-03-31T01:19:00.799Z,987.94
2018-03-31T01:20:00.772Z,987.9
2018-03-31T01:21:00.745Z,987.92
2018-03-31T01:22:00.717Z,987.95
2018-03-31T01:23:00.688Z,987.92
2018-03-31T01:24:00.661Z,987.95
2018-03-31T01:25:00.635Z,987.98
2018-03-31T01:26:00.607Z,987.97
2018-03-31T01:27:00.578Z,987.98
2018-03-31T01:28:00.549Z,987.99
2018-03-31T01:29:00.524Z,988.01
2018-03-31T01:30:00.494Z,988.04
2018-03-31T01:31:00.466Z,988.08
2018-03-31T01:32:00.438Z,988.12
2018-03-31T01:33:00.412Z,988.09
2018-03-31T01:34:00.382Z,988.09
2018-03-31T01:35:00.355Z,988.13
2018-03-31T01:36:00.329Z,988.1
2018-03-31T01:37:00.300Z,988.1
2018-03-31T01:38:00.273Z,988.11
2018-03-31T01:39:00.244Z,988.12
2018-03-31T01:40:00.218Z,988.09
2018-03-31T01:41:00.190Z,988.09
2018-03-31T01:42:00.162Z,988.09
2018-03-31T01:43:00.134Z,988.1
2018-03-31T01:44:00.112Z,988.1
2018-03-31T01:45:00.081Z,988.09
2018-03-31T01:46:00.057Z,988.13
2018-03-31T01:47:00.024Z,988.1
2018-03-31T01:47:59.994Z,988.09
2018-03-31T01:48:59.968Z,988.1
2018-03-31T01:49:59.940Z,988.11
2018-03-31T01:50:59.916Z,988.1
2018-03-31T01:51:59.884Z,988.09
2018-03-31T01:52:59.856Z,988.13
2018-03-31T01:53:59.828Z,988.11
2018-03-31T01:54:59.800Z,988.12
2018-03-31T01:55:59.772Z,988.05
2018-03-31T01:56:59.746Z,988.09
2018-03-31T01:57:59.717Z,988.06
2018-03-31T01:58:59.690Z,988.08
2018-03-31T01:59:59.660Z,988.04
2018-03-31T02:00:59.633Z,988.07
2018-03-31T02:01:59.607Z,988.08
2018-03-31T02:02:59.579Z,988.08
2018-03-31T02:03:59.548Z,988.1
2018-03-31T02:04:59.521Z,988.07
2018-03-31T02:05:59.492Z,988.09
2018-03-31T02:06:59.464Z,988.09
2018-03-31T02:07:59.436Z,988.11
2018-03-31T02:08:59.409Z,988.09
2018-03-31T02:09:59.378Z,988.05
2018-03-31T02:10:59.353Z,988.1
2018-03-31T02:11:59.323Z,988.1
2018-03-31T02:12:59.296Z,988.1
2018-03-31T02:13:59.267Z,988.07
2018-03-31T02:14:59.241Z,988.09
2018-03-31T02:15:59.212Z,988.06
2018-03-31T02:16:59.184Z,988.04
2018-03-31T02:17:59.155Z,988.02
2018-03-31T02:18:59.127Z,987.95
2018-03-31T02:19:59.098Z,987.99
2018-03-31T02:20:59.071Z,987.98
2018-03-31T02:21:59.043Z,987.97
2018-03-31T02:22:59.015Z,987.97
2018-03-31T02:23:58.986Z,987.92
2018-03-31T02:24:58.958Z,987.95
2018-03-31T02:25:58.929Z,987.96
2018-03-31T02:26:58.903Z,987.99
2018-03-31T02:27:58.876Z,987.98
2018-03-31T02:28:58.846Z,987.97
2018-03-31T02:29:58.819Z,987.93
2018-03-31T02:30:58.793Z,987.94
2018-03-31T02:31:58.768Z,987.92
2018-03-31T02:32:58.736Z,987.9
2018-03-31T02:33:58.709Z,987.92
2018-03-31T02:34:58.680Z,987.94
2018-03-31T02:35:58.652Z,987.99
2018-03-31T02:36:58.622Z,987.97
2018-03-31T02:37:58.595Z,987.98
2018-03-31T02:38:58.567Z,988.03
2018-03-31T02:39:58.538Z,987.96
2018-03-31T02:40:58.516Z,987.97
2018-03-31T02:41:58.482Z,987.95
2018-03-31T02:42:58.455Z,987.96
2018-03-31T02:43:58.428Z,987.97
2018-03-31T02:44:58.398Z,987.95
2018-03-31T02:45:58.372Z,987.97
2018-03-31T02:46:58.341Z,987.96
2018-03-31T02:47:58.315Z,987.98
2018-03-31T02:48:58.286Z,987.95
2018-03-31T02:49:58.257Z,987.95
2018-03-31T02:50:58.229Z,987.94
2018-03-31T02:51:58.202Z,987.95
2018-03-31T02:52:58.182Z,987.95
2018-03-31T02:53:58.148Z,987.93
2018-03-31T02:54:58.117Z,987.92
2018-03-31T02:55:58.094Z,987.95
2018-03-31T02:56:58.062Z,987.98
2018-03-31T02:57:58.031Z,987.93
2018-03-31T02:58:58.005Z,987.97
2018-03-31T02:59:57.977Z,987.94
2018-03-31T03:00:57.957Z,987.97
2018-03-31T03:01:57.919Z,987.99
2018-03-31T03:02:57.897Z,987.96
2018-03-31T03:03:57.864Z,987.96
2018-03-31T03:04:57.834Z,987.96
2018-03-31T03:05:57.806Z,988.01
2018-03-31T03:06:57.779Z,988.03
2018-03-31T03:07:57.750Z,988.02
2018-03-31T03:08:57.724Z,988.03
2018-03-31T03:09:57.693Z,988.03
2018-03-31T03:10:57.681Z,987.99
2018-03-31T03:11:57.635Z,988.02
2018-03-31T03:12:57.607Z,988.04
2018-03-31T03:13:57.580Z,988.03
2018-03-31T03:14:57.551Z,988.04
2018-03-31T03:15:57.523Z,987.96
2018-03-31T03:16:57.495Z,988.01
2018-03-31T03:17:57.467Z,987.96
2018-03-31T03:18:57.439Z,987.99
2018-03-31T03:19:57.411Z,987.98
2018-03-31T03:20:57.382Z,987.95
2018-03-31T03:21:57.355Z,987.94
2018-03-31T03:22:57.325Z,987.93
2018-03-31T03:23:57.297Z,987.93
2018-03-31T03:24:57.268Z,987.98
2018-03-31T03:25:57.241Z,987.92
2018-03-31T03:26:57.211Z,987.96
2018-03-31T03:27:57.183Z,988
2018-03-31T03:28:57.155Z,987.99
2018-03-31T03:29:57.127Z,988.07
2018-03-31T03:30:57.100Z,988.06
2018-03-31T03:31:57.069Z,988.07
2018-03-31T03:32:57.041Z,988.11
2018-03-31T03:33:57.012Z,988.11
2018-03-31T03:34:56.985Z,988.09
2018-03-31T03:35:56.956Z,988.11
2018-03-31T03:36:56.927Z,988.13
2018-03-31T03:37:56.898Z,988.11
2018-03-31T03:38:56.871Z,988.13
2018-03-31T03:39:56.843Z,988.11
2018-03-31T03:40:56.815Z,988.14
2018-03-31T03:41:56.785Z,988.12
2018-03-31T03:42:56.758Z,988.11
2018-03-31T03:43:56.729Z,988.14
2018-03-31T03:44:56.710Z,988.2
2018-03-31T03:45:56.673Z,988.22
2018-03-31T03:46:56.648Z,988.22
2018-03-31T03:47:56.617Z,988.3
2018-03-31T03:48:56.696Z,988.3
2018-03-31T03:49:56.560Z,988.32
2018-03-31T03:50:56.530Z,988.35
2018-03-31T03:51:56.502Z,988.38
2018-03-31T03:52:56.474Z,988.39
2018-03-31T03:53:56.446Z,988.45
2018-03-31T03:54:56.418Z,988.43
2018-03-31T03:55:56.388Z,988.44
2018-03-31T03:56:56.360Z,988.46
2018-03-31T03:57:56.340Z,988.48
2018-03-31T03:58:56.305Z,988.5
2018-03-31T03:59:56.275Z,988.51
2018-03-31T04:00:56.248Z,988.54
2018-03-31T04:01:56.219Z,988.48
2018-03-31T04:02:56.189Z,988.5
2018-03-31T04:03:56.162Z,988.51
2018-03-31T04:04:56.135Z,988.51
2018-03-31T04:05:56.105Z,988.54
2018-03-31T04:06:56.077Z,988.5
2018-03-31T04:07:56.048Z,988.52
2018-03-31T04:08:56.021Z,988.53
2018-03-31T04:09:55.991Z,988.52
2018-03-31T04:10:55.963Z,988.55
2018-03-31T04:11:55.934Z,988.55
2018-03-31T04:12:55.907Z,988.54
2018-03-31T04:13:55.879Z,988.52
2018-03-31T04:14:55.848Z,988.52
2018-03-31T04:15:55.826Z,988.54
2018-03-31T04:16:55.792Z,988.55
2018-03-31T04:17:55.765Z,988.54
2018-03-31T04:18:55.736Z,988.5
2018-03-31T04:19:55.706Z,988.54
2018-03-31T04:20:55.680Z,988.54
2018-03-31T04:21:55.650Z,988.54
2018-03-31T04:22:55.628Z,988.58
2018-03-31T04:23:55.592Z,988.6
2018-03-31T04:24:55.565Z,988.59
2018-03-31T04:25:55.535Z,988.58
2018-03-31T04:26:55.506Z,988.63
2018-03-31T04:27:55.479Z,988.59
2018-03-31T04:28:55.450Z,988.57
2018-03-31T04:29:55.425Z,988.62
2018-03-31T04:30:55.393Z,988.61
2018-03-31T04:31:55.365Z,988.58
2018-03-31T04:32:55.335Z,988.57
2018-03-31T04:33:55.307Z,988.61
2018-03-31T04:34:55.278Z,988.55
2018-03-31T04:35:55.251Z,988.53
2018-03-31T04:36:55.221Z,988.5
2018-03-31T04:37:55.194Z,988.52
2018-03-31T04:38:55.163Z,988.45
2018-03-31T04:39:55.135Z,988.48
2018-03-31T04:40:55.105Z,988.45
2018-03-31T04:41:55.078Z,988.44
2018-03-31T04:42:55.050Z,988.46
2018-03-31T04:43:55.022Z,988.41
2018-03-31T04:44:54.991Z,988.45
2018-03-31T04:45:54.969Z,988.38
2018-03-31T04:46:54.934Z,988.39
2018-03-31T04:47:54.907Z,988.34
2018-03-31T04:48:54.879Z,988.39
2018-03-31T04:49:54.850Z,988.38
2018-03-31T04:50:54.823Z,988.37
2018-03-31T04:51:54.791Z,988.39
2018-03-31T04:52:54.765Z,988.38
2018-03-31T04:53:54.735Z,988.36
2018-03-31T04:54:54.709Z,988.35
2018-03-31T04:55:54.680Z,988.38
2018-03-31T04:56:54.648Z,988.39
2018-03-31T04:57:54.620Z,988.38
2018-03-31T04:58:54.590Z,988.42
2018-03-31T04:59:54.563Z,988.4
2018-03-31T05:00:54.534Z,988.41
2018-03-31T05:01:54.504Z,988.41
2018-03-31T05:02:54.475Z,988.43
2018-03-31T05:03:54.448Z,988.4
2018-03-31T05:04:54.424Z,988.48
2018-03-31T05:05:54.389Z,988.47
2018-03-31T05:06:54.361Z,988.42
2018-03-31T05:07:54.333Z,988.43
2018-03-31T05:08:54.399Z,988.48
2018-03-31T05:09:54.275Z,988.5
2018-03-31T05:10:54.247Z,988.47
2018-03-31T05:11:54.229Z,988.49
2018-03-31T05:12:54.189Z,988.48
2018-03-31T05:13:54.160Z,988.49
2018-03-31T05:14:54.132Z,988.5
2018-03-31T05:15:54.103Z,988.55
2018-03-31T05:16:54.075Z,988.5
2018-03-31T05:17:54.089Z,988.53
2018-03-31T05:18:54.019Z,988.56
2018-03-31T05:19:53.988Z,988.57
2018-03-31T05:20:53.958Z,988.61
2018-03-31T05:21:53.931Z,988.6
2018-03-31T05:22:53.905Z,988.62
2018-03-31T05:23:53.872Z,988.61
2018-03-31T05:24:53.844Z,988.62
2018-03-31T05:25:53.816Z,988.65
2018-03-31T05:26:53.788Z,988.62
2018-03-31T05:27:53.759Z,988.66
2018-03-31T05:28:53.730Z,988.65
2018-03-31T05:29:53.703Z,988.65
2018-03-31T05:30:53.673Z,988.67
2018-03-31T05:31:53.660Z,988.65
2018-03-31T05:32:53.623Z,988.64
2018-03-31T05:33:53.588Z,988.66
2018-03-31T05:34:53.562Z,988.66
2018-03-31T05:35:53.531Z,988.68
2018-03-31T05:36:53.502Z,988.69
2018-03-31T05:37:53.474Z,988.62
2018-03-31T05:38:53.445Z,988.67
2018-03-31T05:39:53.417Z,988.68
2018-03-31T05:40:53.389Z,988.71
2018-03-31T05:41:53.361Z,988.72
2018-03-31T05:42:53.332Z,988.7
2018-03-31T05:43:53.304Z,988.63
2018-03-31T05:44:53.275Z,988.66
2018-03-31T05:45:53.247Z,988.67
2018-03-31T05:46:53.218Z,988.68
2018-03-31T05:47:53.194Z,988.72
2018-03-31T05:48:53.168Z,988.67
2018-03-31T05:49:53.135Z,988.71
2018-03-31T05:50:53.107Z,988.73
2018-03-31T05:51:53.079Z,988.73
2018-03-31T05:52:53.049Z,988.71
2018-03-31T05:53:53.022Z,988.7
2018-03-31T05:54:52.995Z,988.76
2018-03-31T05:55:52.967Z,988.71
2018-03-31T05:56:52.938Z,988.78
2018-03-31T05:57:52.910Z,988.76
2018-03-31T05:58:52.882Z,988.81
2018-03-31T05:59:52.856Z,988.78
2018-03-31T06:00:52.827Z,988.77
2018-03-31T06:01:52.798Z,988.81
2018-03-31T06:02:52.771Z,988.79
2018-03-31T06:03:52.743Z,988.78
2018-03-31T06:04:52.714Z,988.8
2018-03-31T06:05:52.687Z,988.79
2018-03-31T06:06:52.661Z,988.79
2018-03-31T06:07:52.633Z,988.75
2018-03-31T06:08:52.634Z,988.75
2018-03-31T06:09:52.577Z,988.76
2018-03-31T06:10:52.551Z,988.71
2018-03-31T06:11:52.523Z,988.7
2018-03-31T06:12:52.496Z,988.69
2018-03-31T06:13:52.471Z,988.68
2018-03-31T06:14:52.440Z,988.69
2018-03-31T06:15:52.413Z,988.69
2018-03-31T06:16:52.386Z,988.71
2018-03-31T06:17:52.359Z,988.72
2018-03-31T06:18:52.334Z,988.73
2018-03-31T06:19:52.305Z,988.7
2018-03-31T06:20:52.278Z,988.71
2018-03-31T06:21:52.251Z,988.69
2018-03-31T06:22:52.224Z,988.72
2018-03-31T06:23:52.197Z,988.69
2018-03-31T06:24:52.171Z,988.72
2018-03-31T06:25:52.143Z,988.68
2018-03-31T06:26:52.117Z,988.68
2018-03-31T06:27:52.090Z,988.71
2018-03-31T06:28:52.066Z,988.73
2018-03-31T06:29:52.044Z,988.73
2018-03-31T06:30:52.018Z,988.73
2018-03-31T06:31:51.993Z,988.73
2018-03-31T06:32:51.955Z,988.71
2018-03-31T06:33:51.931Z,988.74
2018-03-31T06:34:51.904Z,988.77
2018-03-31T06:35:51.877Z,988.74
2018-03-31T06:36:51.851Z,988.76
2018-03-31T06:37:51.824Z,988.78
2018-03-31T06:38:51.798Z,988.76
2018-03-31T06:39:51.771Z,988.78
2018-03-31T06:40:51.744Z,988.81
2018-03-31T06:41:51.719Z,988.87
2018-03-31T06:42:51.694Z,988.87
2018-03-31T06:43:51.673Z,988.89
2018-03-31T06:44:51.640Z,988.9
2018-03-31T06:45:51.615Z,988.9
2018-03-31T06:46:51.588Z,988.91
2018-03-31T06:47:51.561Z,988.95
2018-03-31T06:48:51.535Z,988.93
2018-03-31T06:49:51.510Z,988.99
2018-03-31T06:50:51.484Z,988.95
2018-03-31T06:51:51.457Z,989
2018-03-31T06:52:51.432Z,988.97
2018-03-31T06:53:51.406Z,989.02
2018-03-31T06:54:51.384Z,989.03
2018-03-31T06:55:51.355Z,989.03
2018-03-31T06:56:51.329Z,989.02
2018-03-31T06:57:51.303Z,989.05
2018-03-31T06:58:51.284Z,989.03
2018-03-31T06:59:51.255Z,989.05
2018-03-31T07:00:51.226Z,989.04
2018-03-31T07:01:51.206Z,989.01
2018-03-31T07:02:51.175Z,989.01
2018-03-31T07:03:51.152Z,989.03
2018-03-31T07:04:51.124Z,989.04
2018-03-31T07:05:51.099Z,989
2018-03-31T07:06:51.073Z,989.02
2018-03-31T07:07:51.048Z,989.06
2018-03-31T07:08:51.024Z,989.06
2018-03-31T07:09:50.996Z,989.02
2018-03-31T07:10:50.973Z,989.04
2018-03-31T07:11:50.947Z,989.05
2018-03-31T07:12:50.921Z,989.03
2018-03-31T07:13:50.895Z,989.06
2018-03-31T07:14:50.870Z,989.06
2018-03-31T07:15:50.845Z,989.04
2018-03-31T07:16:50.819Z,989.03
2018-03-31T07:17:50.795Z,989.04
2018-03-31T07:18:50.769Z,989
2018-03-31T07:19:50.747Z,989.03
2018-03-31T07:20:50.720Z,989.05
2018-03-31T07:21:50.696Z,989
2018-03-31T07:22:50.675Z,989.07
2018-03-31T07:23:50.645Z,989.05
2018-03-31T07:24:50.620Z,989.02
2018-03-31T07:25:50.595Z,989
2018-03-31T07:26:50.572Z,989.04
2018-03-31T07:27:50.544Z,989.04
2018-03-31T07:28:50.521Z,989.04
2018-03-31T07:29:50.496Z,989.01
2018-03-31T07:30:50.472Z,988.98
2018-03-31T07:31:50.447Z,988.98
2018-03-31T07:32:50.422Z,989
2018-03-31T07:33:50.398Z,988.97
2018-03-31T07:34:50.374Z,988.95
2018-03-31T07:35:50.349Z,988.97
2018-03-31T07:36:50.324Z,988.96
2018-03-31T07:37:50.301Z,988.94
2018-03-31T07:38:50.421Z,988.96
2018-03-31T07:39:50.251Z,988.93
2018-03-31T07:40:50.227Z,988.95
2018-03-31T07:41:50.203Z,988.97
2018-03-31T07:42:50.178Z,988.99
2018-03-31T07:43:50.153Z,988.94
2018-03-31T07:44:50.129Z,988.99
2018-03-31T07:45:50.106Z,989.04
2018-03-31T07:46:50.084Z,989.04
2018-03-31T07:47:50.062Z,989.02
2018-03-31T07:48:50.032Z,989.03
2018-03-31T07:49:50.009Z,989.03
2018-03-31T07:50:49.985Z,989.02
2018-03-31T07:51:49.960Z,989
2018-03-31T07:52:49.936Z,989.01
2018-03-31T07:53:49.910Z,989.01
2018-03-31T07:54:49.892Z,988.96
2018-03-31T07:55:49.863Z,988.98
2018-03-31T07:56:49.839Z,988.95
2018-03-31T07:57:49.816Z,988.97
2018-03-31T07:58:49.790Z,988.99
2018-03-31T07:59:49.767Z,988.99
2018-03-31T08:00:49.742Z,988.98
2018-03-31T08:01:49.718Z,989.02
2018-03-31T08:02:49.693Z,989.03
2018-03-31T08:03:49.671Z,989.01
2018-03-31T08:04:49.644Z,989.05
2018-03-31T08:05:49.620Z,989.03
2018-03-31T08:06:49.597Z,989.02
2018-03-31T08:07:49.573Z,989.06
2018-03-31T08:08:49.549Z,989
2018-03-31T08:09:49.525Z,989.01
2018-03-31T08:10:49.502Z,989.01
2018-03-31T08:11:49.477Z,988.99
2018-03-31T08:12:49.453Z,989.01
2018-03-31T08:13:49.431Z,988.97
2018-03-31T08:14:49.405Z,988.98
2018-03-31T08:15:49.380Z,988.98
2018-03-31T08:16:49.357Z,988.96
2018-03-31T08:17:49.333Z,988.97
2018-03-31T08:18:49.309Z,988.96
2018-03-31T08:19:49.286Z,988.99
2018-03-31T08:20:49.262Z,988.98
2018-03-31T08:21:49.239Z,988.97
2018-03-31T08:22:49.214Z,988.97
2018-03-31T08:23:49.191Z,988.99
2018-03-31T08:24:49.167Z,988.95
2018-03-31T08:25:49.148Z,988.97
2018-03-31T08:26:49.120Z,988.94
2018-03-31T08:27:49.097Z,988.97
2018-03-31T08:28:49.074Z,988.96
2018-03-31T08:29:49.049Z,988.94
2018-03-31T08:30:49.026Z,988.96
2018-03-31T08:31:49.003Z,988.95
2018-03-31T08:32:48.979Z,988.94
2018-03-31T08:33:48.964Z,988.89
2018-03-31T08:34:48.934Z,988.88
2018-03-31T08:35:48.911Z,988.91
2018-03-31T08:36:48.891Z,988.89
2018-03-31T08:37:48.864Z,988.9
2018-03-31T08:38:48.841Z,988.95
2018-03-31T08:39:48.817Z,988.91
2018-03-31T08:40:48.794Z,988.92
2018-03-31T08:41:48.819Z,988.93
2018-03-31T08:42:48.749Z,988.93
2018-03-31T08:43:48.726Z,988.95
2018-03-31T08:44:48.702Z,988.96
2018-03-31T08:45:48.678Z,988.94
2018-03-31T08:46:48.657Z,988.93
2018-03-31T08:47:48.634Z,988.96
2018-03-31T08:48:48.611Z,988.97
2018-03-31T08:49:48.588Z,988.97
2018-03-31T08:50:48.564Z,988.95
2018-03-31T08:51:48.541Z,988.95
2018-03-31T08:52:48.517Z,988.89
2018-03-31T08:53:48.496Z,988.89
2018-03-31T08:54:48.474Z,988.9
2018-03-31T08:55:48.463Z,988.87
2018-03-31T08:56:48.427Z,988.89
2018-03-31T08:57:48.405Z,988.88
2018-03-31T08:58:48.381Z,988.94
2018-03-31T08:59:48.358Z,988.89
2018-03-31T09:00:48.335Z,988.93
2018-03-31T09:01:48.313Z,988.89
2018-03-31T09:02:48.290Z,988.93
2018-03-31T09:03:48.269Z,988.94
2018-03-31T09:04:48.245Z,988.94
2018-03-31T09:05:48.223Z,988.92
2018-03-31T09:06:48.199Z,988.94
2018-03-31T09:07:48.176Z,988.91
2018-03-31T09:08:48.160Z,988.88
2018-03-31T09:09:48.131Z,988.9
2018-03-31T09:10:48.109Z,988.89
2018-03-31T09:11:48.085Z,988.89
2018-03-31T09:12:48.067Z,988.94
2018-03-31T09:13:48.056Z,988.91
2018-03-31T09:14:48.017Z,988.93
2018-03-31T09:15:47.993Z,988.95
2018-03-31T09:16:47.971Z,988.96
2018-03-31T09:17:47.947Z,988.99
2018-03-31T09:18:47.925Z,989.01
2018-03-31T09:19:47.901Z,988.97
2018-03-31T09:20:47.879Z,989.03
2018-03-31T09:21:47.856Z,988.99
2018-03-31T09:22:47.833Z,989.03
2018-03-31T09:23:47.811Z,989.04
2018-03-31T09:24:47.787Z,989
2018-03-31T09:25:47.763Z,989.04
2018-03-31T09:26:47.741Z,989.02
2018-03-31T09:27:47.725Z,989.01
2018-03-31T09:28:47.695Z,989.03
2018-03-31T09:29:47.672Z,989.04
2018-03-31T09:30:47.649Z,989.05
2018-03-31T09:31:47.625Z,989.07
2018-03-31T09:32:47.603Z,989.1
2018-03-31T09:33:47.581Z,989.1
2018-03-31T09:34:47.562Z,989.13
2018-03-31T09:35:47.534Z,989.09
2018-03-31T09:36:47.512Z,989.05
2018-03-31T09:37:47.616Z,989.09
2018-03-31T09:38:47.465Z,989.11
2018-03-31T09:39:47.445Z,989.09
2018-03-31T09:40:47.420Z,989.06
2018-03-31T09:41:47.397Z,989.08
2018-03-31T09:42:47.373Z,989.07
2018-03-31T09:43:47.350Z,989.1
2018-03-31T09:44:47.327Z,989.12
2018-03-31T09:45:47.305Z,989.1
2018-03-31T09:46:47.360Z,989.09
2018-03-31T09:47:47.259Z,989.12
2018-03-31T09:48:47.237Z,989.06
2018-03-31T09:49:47.212Z,989.1
2018-03-31T09:50:47.190Z,989.08
2018-03-31T09:51:47.168Z,989.18
2018-03-31T09:52:47.145Z,989.11
2018-03-31T09:53:47.121Z,989.17
2018-03-31T09:54:47.097Z,989.18
2018-03-31T09:55:47.075Z,989.21
2018-03-31T09:56:47.059Z,989.18
2018-03-31T09:57:47.029Z,989.18
2018-03-31T09:58:47.007Z,989.18
2018-03-31T09:59:46.984Z,989.16
2018-03-31T10:00:46.961Z,989.16
2018-03-31T10:01:46.938Z,989.13
2018-03-31T10:02:46.914Z,989.17
2018-03-31T10:03:46.896Z,989.15
2018-03-31T10:04:46.869Z,989.16
2018-03-31T10:05:46.852Z,989.13
2018-03-31T10:06:46.824Z,989.11
2018-03-31T10:07:46.801Z,989.12
2018-03-31T10:08:46.778Z,989.13
2018-03-31T10:09:46.755Z,989.12
2018-03-31T10:10:46.733Z,989.09
2018-03-31T10:11:46.710Z,989.12
2018-03-31T10:12:46.687Z,989.11
2018-03-31T10:13:46.665Z,989.1
2018-03-31T10:14:46.641Z,989.13
2018-03-31T10:15:46.618Z,989.13
2018-03-31T10:16:46.597Z,989.15
2018-03-31T10:17:46.575Z,989.14
2018-03-31T10:18:46.551Z,989.13
2018-03-31T10:19:46.530Z,989.19
2018-03-31T10:20:46.507Z,989.15
2018-03-31T10:21:46.484Z,989.13
2018-03-31T10:22:46.461Z,989.18
2018-03-31T10:23:46.439Z,989.18
2018-03-31T10:24:46.417Z,989.23
2018-03-31T10:25:46.396Z,989.23
2018-03-31T10:26:46.372Z,989.25
2018-03-31T10:27:46.349Z,989.2
2018-03-31T10:28:46.326Z,989.27
2018-03-31T10:29:46.312Z,989.17
2018-03-31T10:30:46.282Z,989.21
2018-03-31T10:31:46.259Z,989.21
2018-03-31T10:32:46.246Z,989.22
2018-03-31T10:33:46.215Z,989.24
2018-03-31T10:34:46.193Z,989.23
2018-03-31T10:35:46.170Z,989.19
2018-03-31T10:36:46.150Z,989.27
2018-03-31T10:37:46.126Z,989.28
2018-03-31T10:38:46.103Z,989.25
2018-03-31T10:39:46.082Z,989.23
2018-03-31T10:40:46.059Z,989.3
2018-03-31T10:41:46.083Z,989.21
2018-03-31T10:42:46.015Z,989.21
2018-03-31T10:43:45.994Z,989.26
2018-03-31T10:44:45.972Z,989.29
2018-03-31T10:45:45.951Z,989.26
2018-03-31T10:46:45.929Z,989.29
2018-03-31T10:47:45.909Z,989.26
2018-03-31T10:48:45.885Z,989.28
2018-03-31T10:49:45.865Z,989.26
2018-03-31T10:50:45.844Z,989.27
2018-03-31T10:51:45.824Z,989.23
2018-03-31T10:52:45.802Z,989.29
2018-03-31T10:53:45.781Z,989.27
2018-03-31T10:54:45.761Z,989.3
2018-03-31T10:55:45.740Z,989.27
2018-03-31T10:56:45.718Z,989.26
2018-03-31T10:57:45.698Z,989.29
2018-03-31T10:58:45.678Z,989.27
2018-03-31T10:59:45.660Z,989.31
2018-03-31T11:00:45.636Z,989.26
2018-03-31T11:01:45.616Z,989.27
2018-03-31T11:02:45.596Z,989.26
2018-03-31T11:03:45.576Z,989.24
2018-03-31T11:04:45.557Z,989.28
2018-03-31T11:05:45.537Z,989.25
2018-03-31T11:06:45.516Z,989.23
2018-03-31T11:07:45.496Z,989.28
2018-03-31T11:08:45.475Z,989.25
2018-03-31T11:09:45.456Z,989.24
2018-03-31T11:10:45.435Z,989.27
2018-03-31T11:11:45.416Z,989.26
2018-03-31T11:12:45.397Z,989.29
2018-03-31T11:13:45.378Z,989.28
2018-03-31T11:14:45.357Z,989.27
2018-03-31T11:15:45.336Z,989.28
2018-03-31T11:16:45.323Z,989.28
2018-03-31T11:17:45.330Z,989.25
2018-03-31T11:18:45.279Z,989.25
2018-03-31T11:19:45.260Z,989.27
2018-03-31T11:20:45.242Z,989.24
2018-03-31T11:21:45.222Z,989.26
2018-03-31T11:22:45.203Z,989.28
2018-03-31T11:23:45.183Z,989.29
2018-03-31T11:24:45.170Z,989.32
2018-03-31T11:25:45.145Z,989.32
2018-03-31T11:26:45.233Z,989.28
2018-03-31T11:27:45.110Z,989.31
2018-03-31T11:28:45.090Z,989.32
2018-03-31T11:29:45.071Z,989.28
2018-03-31T11:30:45.053Z,989.27
2018-03-31T11:31:45.035Z,989.27
2018-03-31T11:32:45.015Z,989.19
2018-03-31T11:33:44.997Z,989.21
2018-03-31T11:34:44.978Z,989.21
2018-03-31T11:35:44.960Z,989.22
2018-03-31T11:36:44.941Z,989.24
2018-03-31T11:37:44.923Z,989.21
2018-03-31T11:38:44.905Z,989.19
2018-03-31T11:39:44.884Z,989.19
2018-03-31T11:40:44.902Z,989.18
2018-03-31T11:41:44.849Z,989.17
2018-03-31T11:42:44.831Z,989.16
2018-03-31T11:43:44.813Z,989.19
2018-03-31T11:44:44.796Z,989.18
2018-03-31T11:45:44.778Z,989.17
2018-03-31T11:46:44.760Z,989.21
2018-03-31T11:47:44.746Z,989.19
2018-03-31T11:48:44.724Z,989.24
2018-03-31T11:49:44.707Z,989.23
2018-03-31T11:50:44.687Z,989.22
2018-03-31T11:51:44.670Z,989.24
2018-03-31T11:52:44.654Z,989.19
2018-03-31T11:53:44.633Z,989.23
2018-03-31T11:54:44.618Z,989.28
2018-03-31T11:55:44.596Z,989.21
2018-03-31T11:56:44.578Z,989.23
2018-03-31T11:57:44.563Z,989.22
2018-03-31T11:58:44.538Z,989.28
2018-03-31T11:59:44.520Z,989.23
2018-03-31T12:00:44.507Z,989.22
2018-03-31T12:01:44.481Z,989.21
2018-03-31T12:02:44.465Z,989.24
2018-03-31T12:03:44.445Z,989.17
2018-03-31T12:04:44.425Z,989.21
2018-03-31T12:05:44.405Z,989.21
2018-03-31T12:06:44.387Z,989.24
2018-03-31T12:07:44.368Z,989.19
2018-03-31T12:08:44.349Z,989.19
2018-03-31T12:09:44.328Z,989.2
2018-03-31T12:10:44.314Z,989.21
2018-03-31T12:11:44.292Z,989.22
2018-03-31T12:12:44.272Z,989.24
2018-03-31T12:13:44.252Z,989.28
2018-03-31T12:14:44.233Z,989.22
2018-03-31T12:15:44.213Z,989.24
2018-03-31T12:16:44.194Z,989.18
2018-03-31T12:17:44.174Z,989.19
2018-03-31T12:18:44.155Z,989.17
2018-03-31T12:19:44.134Z,989.22
2018-03-31T12:20:44.115Z,989.14
2018-03-31T12:21:44.093Z,989.18
2018-03-31T12:22:44.075Z,989.17
2018-03-31T12:23:44.055Z,989.15
2018-03-31T12:24:44.036Z,989.14
2018-03-31T12:25:44.016Z,989.1
2018-03-31T12:26:43.998Z,989.09
2018-03-31T12:27:43.975Z,989.1
2018-03-31T12:28:43.956Z,989.09
2018-03-31T12:29:43.935Z,989.08
2018-03-31T12:30:43.917Z,989.12